CAL887 RKPC-RCTP
Flight info
| Callsign | CAL887 |
|---|---|
| Flight time | N/A |
| Altitude | 34000 |
| Route | PANSI2W PANSI Y711 MUGUS Y742 SALMI B576 BAKER BAKER1A |
| Aircraft | B738/M-SDE2E3FGHIRWXY/LB1 |
Departure
| Time | 2026-04-27 13:23 |
|---|---|
| Airport | Jeju International Airport (RKPC) |
Arrival
| Time | N/A |
|---|---|
| Airport | Taiwan Taoyuan International Airport (RCTP) |
| Time | Latitude | Longitude | Altitude | Speed | Heading |
|---|---|---|---|---|---|
| 2026-04-27 12:19 | 33.50771 | 126.49302 | 106 ft | 0 kts | 182° |
| 2026-04-27 13:09 | 33.50780 | 126.49303 | 133 ft | 3 kts | 182° |
| 2026-04-27 13:09 | 33.50800 | 126.49303 | 133 ft | 3 kts | 182° |
| 2026-04-27 13:09 | 33.50821 | 126.49304 | 133 ft | 3 kts | 181° |
| 2026-04-27 13:10 | 33.50841 | 126.49305 | 133 ft | 3 kts | 181° |
| 2026-04-27 13:10 | 33.50857 | 126.49306 | 133 ft | 1 kts | 181° |
| 2026-04-27 13:10 | 33.50861 | 126.49306 | 133 ft | 0 kts | 181° |
| 2026-04-27 13:16 | 33.50858 | 126.49307 | 133 ft | 1 kts | 167° |
| 2026-04-27 13:16 | 33.50860 | 126.49318 | 133 ft | 2 kts | 63° |
| 2026-04-27 13:16 | 33.50896 | 126.49351 | 133 ft | 10 kts | 37° |
| 2026-04-27 13:16 | 33.50942 | 126.49422 | 133 ft | 11 kts | 59° |
| 2026-04-27 13:17 | 33.50979 | 126.49499 | 133 ft | 10 kts | 58° |
| 2026-04-27 13:17 | 33.51017 | 126.49573 | 132 ft | 11 kts | 55° |
| 2026-04-27 13:17 | 33.51079 | 126.49620 | 133 ft | 11 kts | 20° |
| 2026-04-27 13:17 | 33.51149 | 126.49650 | 133 ft | 10 kts | 19° |
| 2026-04-27 13:18 | 33.51216 | 126.49679 | 133 ft | 10 kts | 20° |
| 2026-04-27 13:18 | 33.51273 | 126.49721 | 133 ft | 9 kts | 51° |
| 2026-04-27 13:18 | 33.51307 | 126.49783 | 134 ft | 8 kts | 57° |
| 2026-04-27 13:18 | 33.51342 | 126.49823 | 134 ft | 7 kts | 22° |
| 2026-04-27 13:19 | 33.51382 | 126.49822 | 133 ft | 2 kts | 339° |
| 2026-04-27 13:19 | 33.51392 | 126.49815 | 133 ft | 0 kts | 329° |
| 2026-04-27 13:19 | 33.51393 | 126.49815 | 134 ft | 0 kts | 329° |
| 2026-04-27 13:21 | 33.51408 | 126.49804 | 134 ft | 7 kts | 329° |
| 2026-04-27 13:21 | 33.51456 | 126.49760 | 134 ft | 9 kts | 302° |
| 2026-04-27 13:21 | 33.51451 | 126.49688 | 135 ft | 8 kts | 239° |
| 2026-04-27 13:21 | 33.51448 | 126.49682 | 135 ft | 0 kts | 238° |
| 2026-04-27 13:22 | 33.51437 | 126.49661 | 135 ft | 12 kts | 239° |
| 2026-04-27 13:22 | 33.51262 | 126.49318 | 133 ft | 84 kts | 238° |
| 2026-04-27 13:22 | 33.50843 | 126.48500 | 136 ft | 143 kts | 238° |
| 2026-04-27 13:22 | 33.50306 | 126.47443 | 596 ft | 152 kts | 238° |
| 2026-04-27 13:23 | 33.49747 | 126.46336 | 1227 ft | 156 kts | 237° |
| 2026-04-27 13:23 | 33.49182 | 126.45249 | 1955 ft | 155 kts | 239° |
| 2026-04-27 13:23 | 33.48616 | 126.44147 | 2576 ft | 156 kts | 240° |
| 2026-04-27 13:23 | 33.48032 | 126.43043 | 3211 ft | 158 kts | 239° |
| 2026-04-27 13:24 | 33.47414 | 126.41889 | 3626 ft | 177 kts | 240° |
| 2026-04-27 13:24 | 33.46724 | 126.40549 | 3859 ft | 199 kts | 240° |
| 2026-04-27 13:24 | 33.45970 | 126.39067 | 4051 ft | 218 kts | 240° |
| 2026-04-27 13:24 | 33.45155 | 126.37506 | 4440 ft | 228 kts | 240° |
| 2026-04-27 13:25 | 33.44268 | 126.35794 | 4617 ft | 254 kts | 240° |
| 2026-04-27 13:25 | 33.43312 | 126.33998 | 5283 ft | 259 kts | 233° |
| 2026-04-27 13:25 | 33.41863 | 126.32703 | 6050 ft | 266 kts | 204° |
| 2026-04-27 13:25 | 33.40084 | 126.32091 | 6866 ft | 270 kts | 198° |
| 2026-04-27 13:26 | 33.38235 | 126.31578 | 7576 ft | 273 kts | 197° |
| 2026-04-27 13:26 | 33.36352 | 126.31087 | 8274 ft | 277 kts | 197° |
| 2026-04-27 13:26 | 33.34466 | 126.30572 | 9089 ft | 279 kts | 198° |
| 2026-04-27 13:26 | 33.32565 | 126.30012 | 9867 ft | 283 kts | 199° |
| 2026-04-27 13:27 | 33.30629 | 126.29441 | 10519 ft | 291 kts | 199° |
| 2026-04-27 13:27 | 33.28614 | 126.28846 | 10735 ft | 314 kts | 198° |
| 2026-04-27 13:27 | 33.26406 | 126.28199 | 10928 ft | 337 kts | 198° |
| 2026-04-27 13:27 | 33.18247 | 126.25843 | 13136 ft | 356 kts | 198° |
| 2026-04-27 13:28 | 33.08366 | 126.22992 | 15773 ft | 375 kts | 198° |
| 2026-04-27 13:28 | 33.00688 | 126.20778 | 17834 ft | 385 kts | 198° |
| 2026-04-27 13:28 | 32.93200 | 126.17802 | 19662 ft | 389 kts | 206° |
| 2026-04-27 13:28 | 32.83089 | 126.13284 | 22402 ft | 387 kts | 206° |
| 2026-04-27 13:29 | 32.72921 | 126.08905 | 24333 ft | 398 kts | 207° |
| 2026-04-27 13:29 | 32.62270 | 126.04370 | 25888 ft | 409 kts | 207° |
| 2026-04-27 13:29 | 32.51418 | 125.99755 | 27378 ft | 419 kts | 208° |
| 2026-04-27 13:29 | 32.45620 | 125.97292 | 27964 ft | 427 kts | 207° |
| 2026-04-27 13:30 | 32.34283 | 125.92491 | 29306 ft | 434 kts | 207° |
| 2026-04-27 13:30 | 32.22993 | 125.87736 | 30992 ft | 429 kts | 208° |
| 2026-04-27 13:30 | 32.11902 | 125.83066 | 32564 ft | 424 kts | 208° |
| 2026-04-27 13:30 | 32.09124 | 125.81897 | 32946 ft | 423 kts | 208° |
| 2026-04-27 13:31 | 32.06352 | 125.80729 | 33204 ft | 424 kts | 208° |
| 2026-04-27 13:31 | 32.03567 | 125.79558 | 33504 ft | 425 kts | 208° |
| 2026-04-27 13:31 | 32.00787 | 125.78392 | 33882 ft | 424 kts | 208° |
| 2026-04-27 13:31 | 31.97880 | 125.77171 | 34005 ft | 428 kts | 208° |
| 2026-04-27 13:32 | 31.78356 | 125.68971 | 34028 ft | 438 kts | 208° |
| 2026-04-27 13:32 | 31.61011 | 125.61723 | 33954 ft | 415 kts | 208° |
| 2026-04-27 13:33 | 31.44620 | 125.54844 | 34041 ft | 426 kts | 207° |
| 2026-04-27 13:33 | 31.33167 | 125.50052 | 34071 ft | 438 kts | 207° |
| 2026-04-27 13:33 | 31.21624 | 125.45251 | 34004 ft | 439 kts | 207° |
| 2026-04-27 13:34 | 30.99031 | 125.35881 | 33970 ft | 420 kts | 207° |
| 2026-04-27 13:34 | 30.77110 | 125.26803 | 34044 ft | 421 kts | 207° |
| 2026-04-27 13:35 | 30.54549 | 125.17525 | 34041 ft | 437 kts | 206° |
| 2026-04-27 13:35 | 30.37050 | 125.10368 | 33999 ft | 427 kts | 206° |
| 2026-04-27 13:36 | 30.14850 | 125.01301 | 34046 ft | 423 kts | 206° |
| 2026-04-27 13:36 | 29.97801 | 124.94352 | 34038 ft | 435 kts | 206° |
| 2026-04-27 13:37 | 29.74961 | 124.84579 | 34002 ft | 436 kts | 206° |
| 2026-04-27 13:37 | 29.52571 | 124.75085 | 34007 ft | 422 kts | 206° |
| 2026-04-27 13:38 | 29.30442 | 124.65724 | 34064 ft | 429 kts | 206° |
| 2026-04-27 13:38 | 29.07644 | 124.56140 | 34039 ft | 438 kts | 205° |
| 2026-04-27 13:39 | 28.94829 | 124.50549 | 34029 ft | 423 kts | 213° |
| 2026-04-27 13:39 | 28.82069 | 124.40362 | 34043 ft | 416 kts | 220° |
| 2026-04-27 13:40 | 28.63167 | 124.25218 | 34041 ft | 414 kts | 219° |
| 2026-04-27 13:40 | 28.44284 | 124.10160 | 34044 ft | 414 kts | 219° |
| 2026-04-27 13:41 | 28.30075 | 123.98862 | 34043 ft | 415 kts | 219° |
| 2026-04-27 13:41 | 28.11220 | 123.83502 | 34053 ft | 418 kts | 219° |
| 2026-04-27 13:42 | 27.94154 | 123.69678 | 34050 ft | 420 kts | 218° |
| 2026-04-27 13:42 | 27.77716 | 123.56315 | 34013 ft | 423 kts | 218° |
| 2026-04-27 13:43 | 27.58575 | 123.40807 | 34036 ft | 425 kts | 218° |
| 2026-04-27 13:43 | 27.39310 | 123.25269 | 34044 ft | 426 kts | 218° |
| 2026-04-27 13:44 | 27.19988 | 123.09751 | 34033 ft | 426 kts | 218° |
| 2026-04-27 13:44 | 27.07577 | 122.99819 | 34036 ft | 425 kts | 217° |
| 2026-04-27 13:45 | 26.89284 | 122.85277 | 34039 ft | 424 kts | 217° |
| 2026-04-27 13:45 | 26.70053 | 122.70045 | 34017 ft | 423 kts | 217° |
| 2026-04-27 13:46 | 26.55377 | 122.58465 | 34024 ft | 423 kts | 218° |
| 2026-04-27 13:46 | 26.42007 | 122.47941 | 34034 ft | 423 kts | 218° |
| 2026-04-27 13:49 | 26.39949 | 122.46324 | 34039 ft | 424 kts | 218° |
| 2026-04-27 13:50 | 26.36028 | 122.43245 | 34033 ft | 424 kts | 218° |
| 2026-04-27 13:50 | 26.30692 | 122.39060 | 33572 ft | 429 kts | 219° |
| 2026-04-27 13:51 | 26.28272 | 122.37163 | 33190 ft | 421 kts | 219° |
| 2026-04-27 13:51 | 26.25879 | 122.35290 | 32706 ft | 418 kts | 219° |
| 2026-04-27 13:51 | 26.23579 | 122.33490 | 32257 ft | 414 kts | 219° |
| 2026-04-27 13:51 | 26.21236 | 122.31655 | 31801 ft | 410 kts | 219° |
| 2026-04-27 13:52 | 26.18907 | 122.29831 | 31352 ft | 407 kts | 219° |
| 2026-04-27 13:52 | 26.16595 | 122.28023 | 30905 ft | 404 kts | 219° |
| 2026-04-27 13:52 | 26.14299 | 122.26228 | 30458 ft | 402 kts | 219° |
| 2026-04-27 13:52 | 26.12008 | 122.24450 | 29899 ft | 402 kts | 218° |
| 2026-04-27 13:53 | 26.07445 | 122.20958 | 28905 ft | 394 kts | 218° |
| 2026-04-27 13:53 | 26.05193 | 122.19240 | 28454 ft | 390 kts | 218° |
| 2026-04-27 13:53 | 26.02994 | 122.17561 | 27996 ft | 386 kts | 218° |
| 2026-04-27 13:54 | 26.00602 | 122.15734 | 27506 ft | 382 kts | 218° |
| 2026-04-27 13:54 | 25.98453 | 122.14091 | 27079 ft | 379 kts | 218° |
| 2026-04-27 13:54 | 25.96291 | 122.12439 | 26649 ft | 376 kts | 218° |
| 2026-04-27 13:54 | 25.94144 | 122.10798 | 26219 ft | 373 kts | 218° |
| 2026-04-27 13:55 | 25.92012 | 122.09169 | 25795 ft | 370 kts | 218° |
| 2026-04-27 13:55 | 25.89897 | 122.07553 | 25362 ft | 368 kts | 218° |
| 2026-04-27 13:55 | 25.87792 | 122.05947 | 24940 ft | 366 kts | 218° |
| 2026-04-27 13:55 | 25.85693 | 122.04345 | 24502 ft | 365 kts | 218° |
| 2026-04-27 13:56 | 25.83603 | 122.02750 | 24073 ft | 364 kts | 218° |
| 2026-04-27 13:56 | 25.81515 | 122.01158 | 23641 ft | 364 kts | 217° |
| 2026-04-27 13:56 | 25.79428 | 121.99568 | 23148 ft | 363 kts | 217° |
| 2026-04-27 13:56 | 25.77355 | 121.97988 | 22707 ft | 360 kts | 217° |
| 2026-04-27 13:57 | 25.75292 | 121.96418 | 22274 ft | 357 kts | 217° |
| 2026-04-27 13:57 | 25.73253 | 121.94868 | 21841 ft | 355 kts | 217° |
| 2026-04-27 13:57 | 25.71228 | 121.93319 | 21427 ft | 352 kts | 218° |
| 2026-04-27 13:57 | 25.69253 | 121.91796 | 21031 ft | 349 kts | 218° |
| 2026-04-27 13:58 | 25.67259 | 121.90258 | 20602 ft | 347 kts | 217° |
| 2026-04-27 13:58 | 25.65287 | 121.88722 | 20205 ft | 344 kts | 220° |
| 2026-04-27 13:58 | 25.63676 | 121.86820 | 19863 ft | 336 kts | 238° |
| 2026-04-27 13:58 | 25.62478 | 121.84614 | 19590 ft | 333 kts | 242° |
| 2026-04-27 13:59 | 25.61348 | 121.82369 | 19310 ft | 336 kts | 242° |
| 2026-04-27 13:59 | 25.60214 | 121.80088 | 19005 ft | 339 kts | 242° |
| 2026-04-27 13:59 | 25.59070 | 121.77802 | 18717 ft | 338 kts | 242° |
| 2026-04-27 13:59 | 25.57933 | 121.75551 | 18433 ft | 334 kts | 242° |
| 2026-04-27 14:00 | 25.56811 | 121.73349 | 18114 ft | 331 kts | 242° |
| 2026-04-27 14:00 | 25.55683 | 121.71143 | 17808 ft | 327 kts | 242° |
| 2026-04-27 14:00 | 25.54565 | 121.68963 | 17518 ft | 324 kts | 242° |
| 2026-04-27 14:00 | 25.53452 | 121.66796 | 17253 ft | 325 kts | 242° |
| 2026-04-27 14:01 | 25.52328 | 121.64607 | 16966 ft | 328 kts | 242° |
| 2026-04-27 14:01 | 25.51194 | 121.62403 | 16679 ft | 330 kts | 242° |
| 2026-04-27 14:01 | 25.50062 | 121.60205 | 16394 ft | 328 kts | 242° |
| 2026-04-27 14:01 | 25.48932 | 121.58016 | 16111 ft | 327 kts | 241° |
| 2026-04-27 14:02 | 25.47624 | 121.55953 | 15849 ft | 328 kts | 232° |
| 2026-04-27 14:02 | 25.46120 | 121.54064 | 15561 ft | 328 kts | 230° |
| 2026-04-27 14:02 | 25.44586 | 121.52199 | 15285 ft | 327 kts | 230° |
| 2026-04-27 14:02 | 25.43072 | 121.50317 | 15008 ft | 327 kts | 230° |
| 2026-04-27 14:03 | 25.41583 | 121.48429 | 14724 ft | 326 kts | 231° |
| 2026-04-27 14:03 | 25.40098 | 121.46532 | 14450 ft | 326 kts | 231° |
| 2026-04-27 14:03 | 25.38614 | 121.44632 | 14174 ft | 326 kts | 231° |
| 2026-04-27 14:03 | 25.37690 | 121.43451 | 14001 ft | 326 kts | 231° |